createdAt,value
2023-03-30T00:01:40.770Z,3.67
2023-03-30T00:04:11.392Z,2.60
2023-03-30T00:06:39.373Z,2.60
2023-03-30T00:09:07.079Z,2.80
2023-03-30T00:11:34.637Z,3.00
2023-03-30T00:14:02.339Z,3.07
2023-03-30T00:16:29.812Z,2.30
2023-03-30T00:18:58.633Z,2.80
2023-03-30T00:21:27.992Z,2.80
2023-03-30T00:23:55.439Z,2.93
2023-03-30T00:26:23.237Z,2.57
2023-03-30T00:28:51.122Z,3.17
2023-03-30T00:31:18.646Z,2.87
2023-03-30T00:33:47.506Z,2.87
2023-03-30T00:36:17.360Z,2.30
2023-03-30T00:38:45.439Z,2.30
2023-03-30T00:41:13.145Z,2.10
2023-03-30T00:43:56.706Z,3.00
2023-03-30T00:46:25.245Z,2.50
2023-03-30T00:48:53.125Z,2.80
2023-03-30T00:51:21.994Z,2.60
2023-03-30T00:53:51.223Z,3.10
2023-03-30T00:56:20.402Z,2.33
2023-03-30T00:58:47.957Z,2.87
2023-03-30T01:01:18.464Z,2.60
2023-03-30T01:03:47.833Z,2.67
2023-03-30T01:06:17.814Z,2.87
2023-03-30T01:08:46.631Z,2.63
2023-03-30T01:11:14.343Z,2.30
2023-03-30T01:13:44.049Z,3.80
2023-03-30T01:16:18.902Z,2.67
2023-03-30T01:18:54.623Z,2.70
2023-03-30T01:21:46.149Z,2.27
2023-03-30T01:24:34.710Z,2.87
2023-03-30T01:27:08.544Z,2.70
2023-03-30T01:29:39.714Z,2.27
2023-03-30T01:32:17.666Z,2.40
2023-03-30T01:34:52.904Z,2.67
2023-03-30T01:37:38.019Z,2.80
2023-03-30T01:40:09.952Z,2.47
2023-03-30T01:42:40.083Z,2.67
2023-03-30T01:45:11.428Z,2.60
2023-03-30T01:47:41.251Z,2.73
2023-03-30T01:50:10.213Z,2.60
2023-03-30T01:52:41.103Z,3.10
2023-03-30T01:55:13.311Z,3.10
2023-03-30T01:57:42.762Z,2.53
2023-03-30T02:00:14.532Z,2.60
2023-03-30T02:02:44.642Z,2.37
2023-03-30T02:05:17.806Z,2.47
2023-03-30T02:07:47.102Z,3.27
2023-03-30T02:10:18.561Z,3.40
2023-03-30T02:12:46.653Z,2.77
2023-03-30T02:15:15.405Z,3.03
2023-03-30T02:17:45.820Z,4.27
2023-03-30T02:20:13.337Z,3.70
2023-03-30T02:22:40.796Z,3.30
2023-03-30T02:25:13.590Z,3.37
2023-03-30T02:27:42.872Z,3.73
2023-03-30T02:30:10.937Z,3.17
2023-03-30T02:32:41.900Z,3.20
2023-03-30T02:35:22.179Z,3.17
2023-03-30T02:38:00.830Z,3.30
2023-03-30T02:40:32.970Z,2.80
2023-03-30T02:43:15.495Z,2.87
2023-03-30T02:45:51.206Z,3.07
2023-03-30T02:48:24.037Z,3.00
2023-03-30T02:50:55.338Z,2.93
2023-03-30T02:53:56.061Z,3.20
2023-03-30T02:56:45.600Z,2.97
2023-03-30T02:59:16.902Z,2.77
2023-03-30T03:01:47.731Z,2.77
2023-03-30T03:04:18.750Z,3.80
2023-03-30T03:07:16.679Z,3.40
2023-03-30T03:09:44.280Z,2.97
2023-03-30T03:12:11.909Z,3.13
2023-03-30T03:14:39.719Z,2.60
2023-03-30T03:17:08.561Z,3.17
2023-03-30T03:19:42.909Z,3.40
2023-03-30T03:22:10.824Z,3.33
2023-03-30T03:24:39.079Z,2.67
2023-03-30T03:27:31.493Z,2.80
2023-03-30T03:30:12.831Z,3.43
2023-03-30T03:32:47.792Z,2.60
2023-03-30T03:35:15.694Z,3.23
2023-03-30T03:37:43.206Z,2.80
2023-03-30T03:40:11.337Z,3.13
2023-03-30T03:42:39.106Z,2.83
2023-03-30T03:45:10.732Z,2.87
2023-03-30T03:47:52.431Z,2.50
2023-03-30T03:50:26.153Z,2.47
2023-03-30T03:52:53.962Z,3.30
2023-03-30T03:55:21.455Z,3.00
2023-03-30T03:57:48.818Z,3.23
2023-03-30T04:00:17.370Z,3.10
2023-03-30T04:02:48.369Z,2.40
2023-03-30T04:05:17.289Z,2.87
2023-03-30T04:07:46.269Z,2.50
2023-03-30T04:10:14.512Z,2.83
2023-03-30T04:12:52.149Z,2.53
2023-03-30T04:15:30.228Z,2.57
2023-03-30T04:18:21.535Z,2.60
2023-03-30T04:21:12.955Z,3.00
2023-03-30T04:24:03.790Z,2.03
2023-03-30T04:26:49.939Z,2.60
2023-03-30T04:29:40.989Z,3.07
2023-03-30T04:32:26.529Z,3.10
2023-03-30T04:35:03.816Z,3.20
2023-03-30T04:37:45.952Z,2.73
2023-03-30T04:40:30.581Z,2.77
2023-03-30T04:43:21.394Z,2.90
2023-03-30T04:46:02.812Z,3.43
2023-03-30T04:48:42.761Z,3.77
2023-03-30T04:51:27.081Z,3.30
2023-03-30T04:54:34.185Z,3.87
2023-03-30T04:57:01.594Z,3.43
2023-03-30T04:59:46.681Z,3.00
2023-03-30T05:02:32.871Z,3.30
2023-03-30T05:05:36.547Z,3.63
2023-03-30T05:08:14.910Z,3.60
2023-03-30T05:11:04.926Z,3.47
2023-03-30T05:13:47.250Z,3.93
2023-03-30T05:16:34.070Z,3.90
2023-03-30T05:19:10.753Z,3.90
2023-03-30T05:21:56.891Z,3.70
2023-03-30T05:24:35.556Z,3.57
2023-03-30T05:27:05.031Z,3.30
2023-03-30T05:29:55.362Z,3.43
2023-03-30T05:33:01.073Z,3.40
2023-03-30T05:35:45.668Z,3.33
2023-03-30T05:38:27.187Z,3.47
2023-03-30T05:41:32.905Z,3.40
2023-03-30T05:44:27.784Z,3.77
2023-03-30T05:47:21.865Z,3.27
2023-03-30T05:50:06.302Z,3.50
2023-03-30T05:52:47.340Z,3.23
2023-03-30T05:55:47.553Z,4.33
2023-03-30T05:58:40.068Z,3.13
2023-03-30T06:01:20.736Z,3.53
2023-03-30T06:03:49.046Z,3.03
2023-03-30T06:06:16.568Z,3.67
2023-03-30T06:08:47.064Z,3.47
2023-03-30T06:11:18.405Z,3.40
2023-03-30T06:13:51.000Z,3.80
2023-03-30T06:16:20.132Z,3.20
2023-03-30T06:18:48.070Z,3.10
2023-03-30T06:21:16.204Z,3.57
2023-03-30T06:24:12.986Z,4.00
2023-03-30T06:26:41.700Z,4.60
2023-03-30T06:29:09.557Z,3.57
2023-03-30T06:31:38.917Z,3.53
2023-03-30T06:34:29.264Z,3.97
2023-03-30T06:36:57.181Z,3.63
2023-03-30T06:39:25.910Z,3.30
2023-03-30T06:41:53.835Z,3.83
2023-03-30T06:44:40.134Z,3.63
2023-03-30T06:47:13.678Z,3.17
2023-03-30T06:49:41.641Z,2.83
2023-03-30T06:52:24.704Z,3.27
2023-03-30T06:54:52.137Z,3.80
2023-03-30T06:57:19.635Z,3.67
2023-03-30T06:59:47.156Z,4.20
2023-03-30T07:02:21.964Z,3.10
2023-03-30T07:05:13.010Z,3.50
2023-03-30T07:07:53.896Z,4.40
2023-03-30T07:10:21.940Z,3.77
2023-03-30T07:12:50.279Z,3.93
2023-03-30T07:15:18.779Z,4.30
2023-03-30T07:17:47.624Z,4.10
2023-03-30T07:20:15.918Z,3.40
2023-03-30T07:22:57.212Z,4.67
2023-03-30T07:25:24.621Z,11.17
2023-03-30T07:27:52.067Z,8.60
2023-03-30T07:30:22.285Z,6.13
2023-03-30T07:32:58.334Z,6.93
2023-03-30T07:35:26.922Z,5.87
2023-03-30T07:38:02.848Z,3.80
2023-03-30T07:40:34.614Z,4.00
2023-03-30T07:43:03.297Z,3.50
2023-03-30T07:45:32.038Z,3.73
2023-03-30T07:48:00.887Z,3.90
2023-03-30T07:50:28.390Z,3.33
2023-03-30T07:52:58.657Z,3.87
2023-03-30T07:55:28.724Z,2.97
2023-03-30T07:58:02.328Z,3.70
2023-03-30T08:00:30.796Z,4.97
2023-03-30T08:03:19.660Z,3.63
2023-03-30T08:05:52.902Z,3.47
2023-03-30T08:08:21.243Z,3.23
2023-03-30T08:10:48.787Z,3.67
2023-03-30T08:13:16.358Z,3.00
2023-03-30T08:15:44.393Z,3.60
2023-03-30T08:18:12.857Z,3.47
2023-03-30T08:20:42.496Z,2.83
2023-03-30T08:23:10.423Z,3.33
2023-03-30T08:25:38.082Z,3.17
2023-03-30T08:28:05.919Z,4.47
2023-03-30T08:30:34.446Z,8.63
2023-03-30T08:33:02.082Z,4.13
2023-03-30T08:35:29.553Z,4.13
2023-03-30T08:37:58.479Z,3.30
2023-03-30T08:40:26.213Z,3.23
2023-03-30T08:43:17.879Z,3.00
2023-03-30T08:45:45.545Z,3.27
2023-03-30T08:48:16.267Z,3.60
2023-03-30T08:50:46.968Z,4.10
2023-03-30T08:53:15.995Z,2.70
2023-03-30T08:55:46.093Z,2.93
2023-03-30T08:58:18.824Z,2.97
2023-03-30T09:00:48.553Z,2.73
2023-03-30T09:03:18.732Z,3.13
2023-03-30T09:05:50.163Z,3.13
2023-03-30T09:08:21.479Z,3.07
2023-03-30T09:10:50.800Z,3.60
2023-03-30T09:13:19.654Z,3.20
2023-03-30T09:15:49.953Z,3.27
2023-03-30T09:18:20.777Z,2.50
2023-03-30T09:20:49.012Z,3.37
2023-03-30T09:23:17.520Z,3.10
2023-03-30T09:25:49.164Z,3.47
2023-03-30T09:28:18.336Z,2.50
2023-03-30T09:30:47.124Z,3.33
2023-03-30T09:33:17.909Z,3.23
2023-03-30T09:35:50.971Z,2.90
2023-03-30T09:38:21.403Z,4.17
2023-03-30T09:41:01.010Z,3.40
2023-03-30T09:43:33.132Z,2.83
2023-03-30T09:46:02.042Z,3.43
2023-03-30T09:48:29.623Z,2.83
2023-03-30T09:50:57.231Z,3.03
2023-03-30T09:53:25.957Z,2.90
2023-03-30T09:56:01.044Z,3.33
2023-03-30T09:58:29.050Z,3.30
2023-03-30T10:01:03.248Z,3.17
2023-03-30T10:03:30.943Z,3.23
2023-03-30T10:06:03.086Z,2.77
2023-03-30T10:08:31.252Z,3.30
2023-03-30T10:11:01.810Z,3.00
2023-03-30T10:13:32.149Z,2.80
2023-03-30T10:16:02.925Z,3.03
2023-03-30T10:18:35.137Z,3.23
2023-03-30T10:21:03.941Z,3.37
2023-03-30T10:23:33.243Z,4.77
2023-03-30T10:26:03.994Z,3.83
2023-03-30T10:28:33.742Z,3.60
2023-03-30T10:31:03.002Z,3.70
2023-03-30T10:33:31.013Z,3.47
2023-03-30T10:36:01.861Z,3.83
2023-03-30T10:38:32.259Z,4.00
2023-03-30T10:41:03.405Z,3.87
2023-03-30T10:43:33.148Z,4.33
2023-03-30T10:46:18.777Z,4.00
2023-03-30T10:48:55.137Z,4.70
2023-03-30T10:51:26.434Z,4.40
2023-03-30T10:53:59.885Z,4.17
2023-03-30T10:56:32.293Z,4.30
2023-03-30T10:59:09.871Z,5.00
2023-03-30T11:01:41.768Z,4.47
2023-03-30T11:04:23.089Z,4.57
2023-03-30T11:06:53.059Z,4.70
2023-03-30T11:09:22.978Z,5.73
2023-03-30T11:11:52.292Z,5.03
2023-03-30T11:14:24.518Z,5.00
2023-03-30T11:16:54.050Z,5.10
2023-03-30T11:19:23.736Z,4.13
2023-03-30T11:21:56.709Z,4.50
2023-03-30T11:24:24.996Z,4.80
2023-03-30T11:26:56.621Z,4.80
2023-03-30T11:29:32.173Z,4.17
2023-03-30T11:32:06.483Z,4.27
2023-03-30T11:34:37.953Z,4.03
2023-03-30T11:37:09.827Z,4.60
2023-03-30T11:39:38.687Z,5.10
2023-03-30T11:42:10.614Z,4.50
2023-03-30T11:44:39.386Z,3.93
2023-03-30T11:47:15.195Z,4.03
2023-03-30T11:49:47.463Z,3.90
2023-03-30T11:52:22.054Z,3.87
2023-03-30T11:55:03.721Z,4.30
2023-03-30T11:57:36.680Z,3.87
2023-03-30T12:00:12.617Z,3.90
2023-03-30T12:02:44.551Z,3.73
2023-03-30T12:05:16.977Z,3.67
2023-03-30T12:07:50.264Z,3.67
2023-03-30T12:10:21.841Z,3.80
2023-03-30T12:12:51.903Z,4.73
2023-03-30T12:15:31.947Z,4.13
2023-03-30T12:18:01.622Z,4.67
2023-03-30T12:20:32.869Z,4.60
2023-03-30T12:23:02.898Z,5.90
2023-03-30T12:25:34.767Z,5.17
2023-03-30T12:28:11.060Z,5.30
2023-03-30T12:30:54.753Z,4.97
2023-03-30T12:33:27.490Z,4.60
2023-03-30T12:35:56.493Z,3.70
2023-03-30T12:38:25.383Z,3.60
2023-03-30T12:40:55.849Z,3.97
2023-03-30T12:43:28.619Z,3.83
2023-03-30T12:46:03.205Z,3.60
2023-03-30T12:48:36.583Z,3.60
2023-03-30T12:51:11.472Z,3.80
2023-03-30T12:53:53.060Z,3.63
2023-03-30T12:56:28.827Z,4.00
2023-03-30T12:59:06.677Z,3.10
2023-03-30T13:01:40.995Z,3.50
2023-03-30T13:04:10.566Z,3.20
2023-03-30T13:06:40.459Z,3.17
2023-03-30T13:09:27.152Z,4.07
2023-03-30T13:12:20.722Z,3.80
2023-03-30T13:14:48.112Z,3.80
2023-03-30T13:17:19.642Z,3.23
2023-03-30T13:19:51.513Z,3.20
2023-03-30T13:22:24.629Z,3.53
2023-03-30T13:24:54.293Z,4.13
2023-03-30T13:27:23.463Z,3.73
2023-03-30T13:29:53.342Z,3.80
2023-03-30T13:32:25.940Z,4.67
2023-03-30T13:35:07.041Z,3.93
2023-03-30T13:37:45.859Z,4.07
2023-03-30T13:40:27.301Z,4.03
2023-03-30T13:43:07.879Z,3.80
2023-03-30T13:45:40.089Z,4.00
2023-03-30T13:48:15.156Z,4.77
2023-03-30T13:50:47.253Z,4.30
2023-03-30T13:53:16.085Z,4.90
2023-03-30T13:55:44.977Z,4.43
2023-03-30T13:58:15.446Z,4.47
2023-03-30T14:00:48.771Z,4.20
2023-03-30T14:03:34.886Z,4.60
2023-03-30T14:06:04.674Z,4.40
2023-03-30T14:08:35.480Z,3.73
2023-03-30T14:11:04.703Z,3.50
2023-03-30T14:13:32.419Z,3.80
2023-03-30T14:15:59.914Z,3.87
2023-03-30T14:18:27.689Z,4.10
2023-03-30T14:20:57.395Z,6.70
2023-03-30T14:23:29.534Z,3.70
2023-03-30T14:25:59.014Z,3.20
2023-03-30T14:28:27.696Z,4.00
2023-03-30T14:30:55.941Z,3.70
2023-03-30T14:33:23.774Z,3.17
2023-03-30T14:35:52.096Z,3.50
2023-03-30T14:38:23.866Z,3.10
2023-03-30T14:40:51.880Z,2.80
2023-03-30T14:43:21.944Z,2.60
2023-03-30T14:45:50.406Z,2.93
2023-03-30T14:48:21.986Z,2.80
2023-03-30T14:50:49.660Z,3.10
2023-03-30T14:53:19.876Z,2.90
2023-03-30T14:55:48.723Z,2.60
2023-03-30T14:58:16.260Z,2.80
2023-03-30T15:00:44.129Z,2.77
2023-03-30T15:03:22.709Z,2.80
2023-03-30T15:05:54.131Z,2.87
2023-03-30T15:08:23.096Z,2.80
2023-03-30T15:10:53.545Z,2.90
2023-03-30T15:13:23.993Z,2.57
2023-03-30T15:15:53.127Z,3.13
2023-03-30T15:18:22.231Z,3.10
2023-03-30T15:20:49.657Z,2.40
2023-03-30T15:23:17.288Z,2.80
2023-03-30T15:25:45.315Z,3.53
2023-03-30T15:28:18.943Z,2.90
2023-03-30T15:30:47.714Z,2.80
2023-03-30T15:33:22.745Z,2.80
2023-03-30T15:35:50.376Z,2.90
2023-03-30T15:38:18.802Z,2.90
2023-03-30T15:40:46.865Z,2.78
2023-03-30T15:43:22.598Z,2.97
2023-03-30T15:45:51.873Z,2.88
2023-03-30T15:48:20.916Z,2.83
2023-03-30T15:50:51.855Z,3.20
2023-03-30T15:53:21.319Z,2.67
2023-03-30T15:55:51.486Z,3.00
2023-03-30T15:58:21.532Z,3.28
2023-03-30T16:00:50.398Z,2.93
2023-03-30T16:03:20.113Z,2.70
2023-03-30T16:05:47.528Z,2.90
2023-03-30T16:08:14.933Z,2.87
2023-03-30T16:10:42.352Z,2.60
2023-03-30T16:13:11.616Z,2.70
2023-03-30T16:15:39.101Z,3.03
2023-03-30T16:18:07.963Z,2.93
2023-03-30T16:20:35.368Z,2.90
2023-03-30T16:23:04.356Z,3.10
2023-03-30T16:25:44.197Z,2.67
2023-03-30T16:28:14.965Z,3.23
2023-03-30T16:30:42.710Z,2.80
2023-03-30T16:33:11.662Z,3.03
2023-03-30T16:35:39.152Z,2.77
2023-03-30T16:38:06.617Z,2.90
2023-03-30T16:40:35.616Z,2.90
2023-03-30T16:43:03.485Z,2.90
2023-03-30T16:45:31.355Z,2.80
2023-03-30T16:47:58.798Z,2.73
2023-03-30T16:50:32.511Z,2.80
2023-03-30T16:52:59.946Z,2.60
2023-03-30T16:55:27.358Z,2.77
2023-03-30T16:57:54.727Z,2.93
2023-03-30T17:00:24.914Z,2.87
2023-03-30T17:02:52.346Z,2.97
2023-03-30T17:05:19.840Z,2.63
2023-03-30T17:07:48.713Z,2.70
2023-03-30T17:10:17.633Z,3.20
2023-03-30T17:12:45.043Z,3.33
2023-03-30T17:15:12.712Z,3.07
2023-03-30T17:17:40.120Z,4.20
2023-03-30T17:20:17.835Z,3.80
2023-03-30T17:22:45.239Z,5.03
2023-03-30T17:25:14.382Z,3.70
2023-03-30T17:27:42.078Z,3.60
2023-03-30T17:30:17.209Z,3.13
2023-03-30T17:32:44.787Z,3.23
2023-03-30T17:35:12.266Z,3.00
2023-03-30T17:37:40.122Z,2.70
2023-03-30T17:40:16.440Z,3.30
2023-03-30T17:42:44.332Z,2.97
2023-03-30T17:45:12.246Z,3.40
2023-03-30T17:47:39.695Z,2.83
2023-03-30T17:50:18.233Z,3.10
2023-03-30T17:52:45.928Z,3.10
2023-03-30T17:55:14.787Z,3.33
2023-03-30T17:57:42.169Z,3.83
2023-03-30T18:00:16.553Z,3.57
2023-03-30T18:02:43.969Z,3.30
2023-03-30T18:05:11.559Z,3.53
2023-03-30T18:07:38.926Z,4.40
2023-03-30T18:10:22.080Z,3.47
2023-03-30T18:12:50.302Z,4.17
2023-03-30T18:15:18.642Z,4.17
2023-03-30T18:17:46.091Z,3.50
2023-03-30T18:20:18.394Z,3.40
2023-03-30T18:22:45.868Z,4.07
2023-03-30T18:25:19.083Z,3.47
2023-03-30T18:27:58.605Z,3.60
2023-03-30T18:30:27.525Z,3.63
2023-03-30T18:32:55.007Z,4.10
2023-03-30T18:35:23.518Z,3.73
2023-03-30T18:37:53.707Z,3.27
2023-03-30T18:40:22.798Z,3.37
2023-03-30T18:42:50.536Z,3.37
2023-03-30T18:45:20.640Z,3.60
2023-03-30T18:47:48.379Z,3.50
2023-03-30T18:50:17.867Z,3.90
2023-03-30T18:52:45.296Z,3.43
2023-03-30T18:55:13.338Z,3.80
2023-03-30T18:57:40.894Z,3.77
2023-03-30T19:00:15.165Z,3.50
2023-03-30T19:02:43.922Z,3.63
2023-03-30T19:05:11.342Z,3.60
2023-03-30T19:07:38.750Z,3.90
2023-03-30T19:10:06.700Z,3.37
2023-03-30T19:12:34.142Z,3.70
2023-03-30T19:15:01.577Z,3.73
2023-03-30T19:17:29.145Z,4.10
2023-03-30T19:19:57.910Z,4.13
2023-03-30T19:22:25.325Z,4.00
2023-03-30T19:24:52.725Z,3.83
2023-03-30T19:27:20.298Z,3.97
2023-03-30T19:29:47.647Z,3.80
2023-03-30T19:32:16.518Z,3.87
2023-03-30T19:34:43.946Z,3.80
2023-03-30T19:37:14.358Z,3.93
2023-03-30T19:39:41.745Z,3.70
2023-03-30T19:42:09.443Z,3.20
2023-03-30T19:44:36.924Z,4.40
2023-03-30T19:47:04.481Z,3.53
2023-03-30T19:49:31.991Z,3.77
2023-03-30T19:51:59.345Z,3.30
2023-03-30T19:54:28.093Z,3.80
2023-03-30T19:56:55.811Z,3.57
2023-03-30T19:59:23.252Z,4.30
2023-03-30T20:01:50.942Z,4.00
2023-03-30T20:04:18.334Z,3.53
2023-03-30T20:06:45.731Z,3.57
2023-03-30T20:09:13.116Z,3.87
2023-03-30T20:11:41.819Z,3.93
2023-03-30T20:14:09.171Z,3.30
2023-03-30T20:16:36.569Z,3.80
2023-03-30T20:19:15.780Z,3.50
2023-03-30T20:21:46.574Z,3.40
2023-03-30T20:24:13.987Z,3.43
2023-03-30T20:26:42.731Z,3.60
2023-03-30T20:29:10.105Z,3.60
2023-03-30T20:31:37.610Z,4.17
2023-03-30T20:34:05.062Z,3.40
2023-03-30T20:36:32.542Z,3.90
2023-03-30T20:39:01.144Z,4.00
2023-03-30T20:41:29.926Z,3.57
2023-03-30T20:44:03.143Z,3.73
2023-03-30T20:46:35.342Z,3.37
2023-03-30T20:49:03.720Z,3.73
2023-03-30T20:51:31.152Z,3.57
2023-03-30T20:53:58.544Z,4.27
2023-03-30T20:56:27.815Z,3.73
2023-03-30T20:58:55.282Z,3.77
2023-03-30T21:01:25.359Z,3.97
2023-03-30T21:03:54.204Z,3.50
2023-03-30T21:06:23.742Z,3.57
2023-03-30T21:08:51.339Z,4.07
2023-03-30T21:11:18.835Z,3.63
2023-03-30T21:13:46.402Z,4.40
2023-03-30T21:16:13.953Z,3.40
2023-03-30T21:18:42.773Z,4.00
2023-03-30T21:21:10.308Z,4.00
2023-03-30T21:23:40.007Z,3.87
2023-03-30T21:26:08.235Z,4.20
2023-03-30T21:28:36.245Z,3.97
2023-03-30T21:31:05.812Z,4.47
2023-03-30T21:33:33.291Z,4.07
2023-03-30T21:36:02.475Z,4.00
2023-03-30T21:38:30.616Z,3.77
2023-03-30T21:40:58.987Z,3.90
2023-03-30T21:43:29.830Z,3.60
2023-03-30T21:45:58.064Z,3.57
2023-03-30T21:48:25.920Z,3.80
2023-03-30T21:50:58.805Z,3.40
2023-03-30T21:53:27.551Z,3.80
2023-03-30T21:55:55.031Z,3.73
2023-03-30T21:58:22.625Z,3.50
2023-03-30T22:00:58.347Z,4.00
2023-03-30T22:03:36.468Z,3.30
2023-03-30T22:06:06.273Z,3.37
2023-03-30T22:08:35.318Z,3.40
2023-03-30T22:11:03.742Z,3.73
2023-03-30T22:13:31.212Z,4.20
2023-03-30T22:15:59.207Z,3.10
2023-03-30T22:18:26.772Z,3.23
2023-03-30T22:20:54.471Z,3.17
2023-03-30T22:23:21.805Z,3.40
2023-03-30T22:25:51.024Z,3.20
2023-03-30T22:28:18.426Z,3.13
2023-03-30T22:30:46.335Z,3.10
2023-03-30T22:33:14.003Z,3.33
2023-03-30T22:35:41.894Z,3.33
2023-03-30T22:38:09.646Z,3.13
2023-03-30T22:40:39.297Z,4.00
2023-03-30T22:43:08.063Z,3.03
2023-03-30T22:45:35.518Z,3.30
2023-03-30T22:48:03.050Z,2.90
2023-03-30T22:50:30.678Z,3.33
2023-03-30T22:52:58.181Z,3.50
2023-03-30T22:55:26.387Z,3.10
2023-03-30T22:57:53.948Z,3.57
2023-03-30T23:00:23.648Z,3.13
2023-03-30T23:02:51.182Z,3.80
2023-03-30T23:05:21.062Z,3.80
2023-03-30T23:07:48.856Z,3.53
2023-03-30T23:10:17.885Z,3.40
2023-03-30T23:12:45.736Z,3.20
2023-03-30T23:15:13.605Z,3.57
2023-03-30T23:17:42.963Z,3.67
2023-03-30T23:20:11.432Z,3.40
2023-03-30T23:22:39.099Z,3.33
2023-03-30T23:25:07.137Z,3.50
2023-03-30T23:27:34.856Z,3.30
2023-03-30T23:30:02.273Z,3.30
2023-03-30T23:32:29.687Z,3.43
2023-03-30T23:34:58.467Z,3.20
2023-03-30T23:37:26.202Z,3.20
2023-03-30T23:39:53.576Z,3.40
2023-03-30T23:42:21.158Z,3.43
2023-03-30T23:44:48.599Z,3.77
2023-03-30T23:47:16.233Z,3.60
2023-03-30T23:49:43.649Z,3.30
2023-03-30T23:52:12.432Z,3.20
2023-03-30T23:54:40.711Z,3.20
2023-03-30T23:57:08.298Z,3.57
2023-03-30T23:59:35.763Z,3.23
